Home > Products > Valid Products > MTR

000
SAUS46 KSTO 041553
MTRBLU
METAR KBLU 041552Z AUTO 16011G18KT 10SM CLR 12/07 A2996 RMK AO2
SLP091 T01220067





000
SAUS46 KSTO 041553
MTRBLU
METAR KBLU 041552Z AUTO 16011G18KT 10SM CLR 12/07 A2996 RMK AO2
SLP091 T01220067





000
SAUS46 KSTO 041453
MTRBLU
METAR KBLU 041452Z AUTO 16009KT 10SM CLR 11/07 A2995 RMK AO2 SLP089
T01110067 53003





000
SAUS46 KSTO 041453
MTRBLU
METAR KBLU 041452Z AUTO 16009KT 10SM CLR 11/07 A2995 RMK AO2 SLP089
T01110067 53003





000
SAUS46 KSTO 041354
MTRBLU
METAR KBLU 041352Z AUTO 13006KT 10SM CLR 09/06 A2995 RMK AO2 SLP087
T00940061





000
SAUS46 KSTO 041254
MTRBLU
METAR KBLU 041252Z AUTO 14005KT 10SM CLR 10/06 A2994 RMK AO2 SLP081
T01000061





000
SAUS46 KSTO 041254
MTRBLU
METAR KBLU 041252Z AUTO 14005KT 10SM CLR 10/06 A2994 RMK AO2 SLP081
T01000061





000
SAUS46 KSTO 041153
MTRBLU
METAR KBLU 041152Z AUTO 14005KT 10SM CLR 10/05 A2994 RMK AO2 SLP077
T01000050 10122 20100 56008





000
SAUS46 KSTO 041053
MTRBLU
METAR KBLU 041052Z AUTO 13004KT 10SM CLR 11/05 A2995 RMK AO2 SLP076
T01060050





000
SAUS46 KSTO 040954
MTRBLU
METAR KBLU 040952Z AUTO 13004KT 10SM CLR 11/05 A2995 RMK AO2 SLP081
T01060050





000
SAUS46 KSTO 040854
MTRBLU
METAR KBLU 040852Z AUTO 14003KT 10SM CLR 12/05 A2997 RMK AO2 SLP081
T01170050 58002





000
SAUS46 KSTO 040753
MTRBLU
METAR KBLU 040752Z AUTO 14004KT 10SM CLR 12/05 A2998 RMK AO2 SLP087
T01170050 401830117





000
SAUS46 KSTO 040653
MTRBLU
METAR KBLU 040652Z AUTO 11003KT 10SM CLR 12/05 A2997 RMK AO2 SLP088
T01170050





000
SAUS46 KSTO 040653
MTRBLU
METAR KBLU 040652Z AUTO 11003KT 10SM CLR 12/05 A2997 RMK AO2 SLP088
T01170050





000
SAUS46 KSTO 040553
MTRBLU
METAR KBLU 040552Z AUTO 06003KT 10SM CLR 12/04 A2998 RMK AO2 SLP093
T01170044 10172 20117 50001





000
SAUS46 KSTO 040553
MTRBLU
METAR KBLU 040552Z AUTO 06003KT 10SM CLR 12/04 A2998 RMK AO2 SLP093
T01170044 10172 20117 50001





000
SAUS46 KSTO 040454
MTRBLU
METAR KBLU 040452Z AUTO 00000KT 10SM CLR 12/05 A2998 RMK AO2 SLP095
T01170050





000
SAUS46 KSTO 040354
MTRBLU
METAR KBLU 040352Z AUTO 00000KT 10SM CLR 12/04 A2998 RMK AO2 SLP097
T01170044





000
SAUS46 KSTO 040254
MTRBLU
METAR KBLU 040252Z AUTO 00000KT 10SM CLR 13/04 A2997 RMK AO2 SLP097
T01280039 58006





000
SAUS46 KSTO 040254
MTRBLU
METAR KBLU 040252Z AUTO 00000KT 10SM CLR 13/04 A2997 RMK AO2 SLP097
T01280039 58006





000
SAUS46 KSTO 040153
MTRBLU
METAR KBLU 040152Z AUTO 19006KT 10SM CLR 15/03 A2998 RMK AO2 SLP095
T01500028





000
SAUS46 KSTO 040153
MTRBLU
METAR KBLU 040152Z AUTO 19006KT 10SM CLR 15/03 A2998 RMK AO2 SLP095
T01500028





000
SAUS46 KSTO 040053
MTRBLU
METAR KBLU 040052Z AUTO 19006KT 10SM CLR 16/03 A2999 RMK AO2 SLP093
T01610028





000
SAUS46 KSTO 040053
MTRBLU
METAR KBLU 040052Z AUTO 19006KT 10SM CLR 16/03 A2999 RMK AO2 SLP093
T01610028





000
SAUS46 KSTO 032353
MTRBLU
METAR KBLU 032352Z AUTO 20007G16KT 170V240 10SM CLR 17/03 A2999 RMK
AO2 SLP089 T01720033 10183 20150 57009





000
SAUS46 KSTO 032353
MTRBLU
METAR KBLU 032352Z AUTO 20007G16KT 170V240 10SM CLR 17/03 A2999 RMK
AO2 SLP089 T01720033 10183 20150 57009





000
SAUS46 KSTO 032254
MTRBLU
METAR KBLU 032252Z AUTO 17013G18KT 10SM CLR 18/04 A3000 RMK AO2
SLP092 T01780039





000
SAUS46 KSTO 032254
MTRBLU
METAR KBLU 032252Z AUTO 17013G18KT 10SM CLR 18/04 A3000 RMK AO2
SLP092 T01780039





000
SAUS46 KSTO 032154
MTRBLU
METAR KBLU 032152Z AUTO 19012G22KT 10SM CLR 17/03 A3002 RMK AO2
SLP098 T01670033





000
SAUS46 KSTO 032053
MTRBLU
METAR KBLU 032052Z AUTO 17014G21KT 10SM CLR 18/03 A3002 RMK AO2
SLP098 T01780033 58004





000
SAUS46 KSTO 031953
MTRBLU
METAR KBLU 031952Z AUTO 20013G21KT 10SM CLR 17/03 A3003 RMK AO2
SLP096 T01720033





000
SAUS46 KSTO 031853
MTRBLU
METAR KBLU 031852Z AUTO 18015G19KT 10SM CLR 16/04 A3004 RMK AO2
SLP103 T01610039





000
SAUS46 KSTO 031754
MTRBLU
METAR KBLU 031752Z AUTO VRB05KT 10SM CLR 15/04 A3004 RMK AO2 SLP109
T01500044 10156 20117 53004





000
SAUS46 KSTO 031654
MTRBLU
METAR KBLU 031652Z AUTO 18014KT 10SM CLR 14/05 A3003 RMK AO2 SLP106
T01440050





000
SAUS46 KSTO 031553
MTRBLU
METAR KBLU 031552Z AUTO 17012KT 10SM CLR 13/05 A3003 RMK AO2 SLP108
T01330050





000
SAUS46 KSTO 031453
MTRBLU
METAR KBLU 031452Z AUTO 15007KT 10SM CLR 12/04 A3003 RMK AO2 SLP106
T01170039 53004





000
SAUS46 KSTO 031353
MTRBLU
METAR KBLU 031352Z AUTO 14007KT 10SM CLR 12/03 A3001 RMK AO2 SLP096
T01170033





000
SAUS46 KSTO 031254
MTRBLU
METAR KBLU 031252Z AUTO 15006KT 10SM CLR 12/03 A3000 RMK AO2 SLP090
T01170033





000
SAUS46 KSTO 031254
MTRBLU
METAR KBLU 031252Z AUTO 15006KT 10SM CLR 12/03 A3000 RMK AO2 SLP090
T01170033





000
SAUS46 KSTO 031154
MTRBLU
METAR KBLU 031152Z AUTO 16010KT 10SM CLR 12/03 A3001 RMK AO2 SLP090
T01220033 10144 20117 56005





000
SAUS46 KSTO 031154
MTRBLU
METAR KBLU 031152Z AUTO 16010KT 10SM CLR 12/03 A3001 RMK AO2 SLP090
T01220033 10144 20117 56005





000
SAUS46 KSTO 031053
MTRBLU
METAR KBLU 031052Z AUTO 15006KT 10SM CLR 12/05 A3002 RMK AO2 SLP090
T01220050





000
SAUS46 KSTO 030953
MTRBLU
METAR KBLU 030952Z AUTO 15008KT 10SM CLR 13/05 A3002 RMK AO2 SLP084
T01330050





000
SAUS46 KSTO 030854
MTRBLU
METAR KBLU 030852Z AUTO 15006KT 10SM CLR 13/05 A3003 RMK AO2 SLP087
T01330050 58004





000
SAUS46 KSTO 030753
MTRBLU
METAR KBLU 030752Z AUTO 15008G15KT 10SM CLR 14/04 A3004 RMK AO2
SLP090 T01440044 402220139





000
SAUS46 KSTO 030753
MTRBLU
METAR KBLU 030752Z AUTO 15008G15KT 10SM CLR 14/04 A3004 RMK AO2
SLP090 T01440044 402220139





000
SAUS46 KSTO 030654
MTRBLU
METAR KBLU 030652Z AUTO 15006KT 10SM CLR 14/04 A3004 RMK AO2 SLP092
T01440044





000
SAUS46 KSTO 030654
MTRBLU
METAR KBLU 030652Z AUTO 15006KT 10SM CLR 14/04 A3004 RMK AO2 SLP092
T01440044





000
SAUS46 KSTO 030553
MTRBLU
METAR KBLU 030552Z AUTO 14006KT 10SM CLR 14/04 A3004 RMK AO2 SLP099
T01390039 10200 20139 58000





000
SAUS46 KSTO 030553
MTRBLU
METAR KBLU 030552Z AUTO 14006KT 10SM CLR 14/04 A3004 RMK AO2 SLP099
T01390039 10200 20139 58000





000
SAUS46 KSTO 030454
MTRBLU
METAR KBLU 030452Z AUTO 13005KT 10SM CLR 14/03 A3005 RMK AO2 SLP101
T01390033





000
SAUS46 KSTO 030354
MTRBLU
METAR KBLU 030352Z AUTO 14006KT 10SM CLR 14/03 A3005 RMK AO2 SLP103
T01390028





000
SAUS46 KSTO 030254
MTRBLU
METAR KBLU 030252Z AUTO 19005KT 10SM CLR 16/02 A3004 RMK AO2 SLP102
T01560022 56005





000
SAUS46 KSTO 030153
MTRBLU
METAR KBLU 030152Z AUTO 20008KT 10SM CLR 18/03 A3005 RMK AO2 SLP101
T01780033





000
SAUS46 KSTO 030053
MTRBLU
METAR KBLU 030052Z AUTO 18011G17KT 10SM CLR 19/03 A3006 RMK AO2
SLP099 T01890033





000
SAUS46 KSTO 022353
MTRBLU
METAR KBLU 022352Z AUTO 19011G21KT 10SM CLR 20/02 A3006 RMK AO2
SLP099 T02000022 10222 20194 56008





000
SAUS46 KSTO 022353
MTRBLU
METAR KBLU 022352Z AUTO 19011G21KT 10SM CLR 20/02 A3006 RMK AO2
SLP099 T02000022 10222 20194 56008





000
SAUS46 KSTO 022253
MTRBLU
METAR KBLU 022252Z AUTO 20011G21KT 10SM CLR 21/03 A3007 RMK AO2
SLP098 T02060028





000
SAUS46 KSTO 022153
MTRBLU
METAR KBLU 022152Z AUTO 17016G22KT 10SM CLR 22/01 A3008 RMK AO2
SLP099 T02170011





000
SAUS46 KSTO 022054
MTRBLU
METAR KBLU 022052Z AUTO 19011G21KT 10SM CLR 22/00 A3009 RMK AO2
SLP102 T02170000 56007





000
SAUS46 KSTO 022054
MTRBLU
METAR KBLU 022052Z AUTO 19011G21KT 10SM CLR 22/00 A3009 RMK AO2
SLP102 T02170000 56007





000
SAUS46 KSTO 021953
MTRBLU
METAR KBLU 021952Z AUTO 22008G21KT 10SM CLR 21/01 A3009 RMK AO2
SLP107 T02110006





000
SAUS46 KSTO 021853
MTRBLU
METAR KBLU 021852Z AUTO 20012G21KT 10SM CLR 21/02 A3010 RMK AO2
SLP111 T02060017





000
SAUS46 KSTO 021753
MTRBLU
METAR KBLU 021752Z AUTO 19012G18KT 10SM CLR 19/03 A3011 RMK AO2
SLP117 T01940033 10200 20150 53002





000
SAUS46 KSTO 021657
MTRBLU
METAR KBLU 021652Z AUTO 17009KT 10SM CLR 19/04 A3011 RMK AO2 SLP115
T01890039





000
SAUS46 KSTO 021657
MTRBLU
METAR KBLU 021652Z AUTO 17009KT 10SM CLR 19/04 A3011 RMK AO2 SLP115
T01890039





000
SAUS46 KSTO 021555
MTRBLU
METAR KBLU 021552Z AUTO 16008KT 10SM CLR 18/04 A3010 RMK AO2 SLP112
T01780039





000
SAUS46 KSTO 021453
MTRBLU
METAR KBLU 021452Z AUTO 14007KT 10SM CLR 17/03 A3011 RMK AO2 SLP114
T01670033 53006





000
SAUS46 KSTO 021453
MTRBLU
METAR KBLU 021452Z AUTO 14007KT 10SM CLR 17/03 A3011 RMK AO2 SLP114
T01670033 53006





000
SAUS46 KSTO 021353
MTRBLU
METAR KBLU 021352Z AUTO 14005KT 10SM CLR 16/02 A3010 RMK AO2 SLP107
T01560022





000
SAUS46 KSTO 021253
MTRBLU
METAR KBLU 021252Z AUTO 15006KT 10SM CLR 16/01 A3009 RMK AO2 SLP102
T01560011





000
SAUS46 KSTO 021253
MTRBLU
METAR KBLU 021252Z AUTO 15006KT 10SM CLR 16/01 A3009 RMK AO2 SLP102
T01560011





000
SAUS46 KSTO 021153
MTRBLU
METAR KBLU 021152Z AUTO 14006KT 10SM CLR 16/01 A3009 RMK AO2 SLP098
T01560006 10161 20150 56003





000
SAUS46 KSTO 021153
MTRBLU
METAR KBLU 021152Z AUTO 14006KT 10SM CLR 16/01 A3009 RMK AO2 SLP098
T01560006 10161 20150 56003





000
SAUS46 KSTO 021053
MTRBLU
METAR KBLU 021052Z AUTO 15006KT 10SM CLR 16/01 A3009 RMK AO2 SLP098
T01560006





000
SAUS46 KSTO 020953
MTRBLU
METAR KBLU 020952Z AUTO 13005KT 10SM CLR 16/02 A3010 RMK AO2 SLP101
T01560022





000
SAUS46 KSTO 020953
MTRBLU
METAR KBLU 020952Z AUTO 13005KT 10SM CLR 16/02 A3010 RMK AO2 SLP101
T01560022





000
SAUS46 KSTO 020853
MTRBLU
METAR KBLU 020852Z AUTO 14005KT 10SM CLR 16/03 A3010 RMK AO2 SLP099
T01560033 58004





000
SAUS46 KSTO 020853
MTRBLU
METAR KBLU 020852Z AUTO 14005KT 10SM CLR 16/03 A3010 RMK AO2 SLP099
T01560033 58004





000
SAUS46 KSTO 020753
MTRBLU
METAR KBLU 020752Z AUTO 13004KT 10SM CLR 16/03 A3010 RMK AO2 SLP107
T01560028 402390150





000
SAUS46 KSTO 020653
MTRBLU
METAR KBLU 020652Z AUTO 13004KT 10SM CLR 16/03 A3011 RMK AO2 SLP108
T01610028





000
SAUS46 KSTO 020653
MTRBLU
METAR KBLU 020652Z AUTO 13004KT 10SM CLR 16/03 A3011 RMK AO2 SLP108
T01610028





000
SAUS46 KSTO 020553
MTRBLU
METAR KBLU 020552Z AUTO 12003KT 10SM CLR 16/03 A3011 RMK AO2 SLP115
T01560033 10233 20150 50005





000
SAUS46 KSTO 020553
MTRBLU
METAR KBLU 020552Z AUTO 12003KT 10SM CLR 16/03 A3011 RMK AO2 SLP115
T01560033 10233 20150 50005





000
SAUS46 KSTO 020453
MTRBLU
METAR KBLU 020452Z AUTO 13003KT 10SM CLR 16/03 A3012 RMK AO2 SLP117
T01610028





000
SAUS46 KSTO 020453
MTRBLU
METAR KBLU 020452Z AUTO 13003KT 10SM CLR 16/03 A3012 RMK AO2 SLP117
T01610028





000
SAUS46 KSTO 020353
MTRBLU
METAR KBLU 020352Z AUTO 16003KT 10SM CLR 17/03 A3011 RMK AO2 SLP113
T01720033





000
SAUS46 KSTO 020253
MTRBLU
METAR KBLU 020252Z AUTO 00000KT 10SM CLR 18/04 A3009 RMK AO2 SLP109
T01830039 53005





000
SAUS46 KSTO 020253
MTRBLU
METAR KBLU 020252Z AUTO 00000KT 10SM CLR 18/04 A3009 RMK AO2 SLP109
T01830039 53005





000
SAUS46 KSTO 020153
MTRBLU
METAR KBLU 020152Z AUTO 21006KT 10SM CLR 21/03 A3008 RMK AO2 SLP100
T02060028





000
SAUS46 KSTO 020153
MTRBLU
METAR KBLU 020152Z AUTO 21006KT 10SM CLR 21/03 A3008 RMK AO2 SLP100
T02060028





000
SAUS46 KSTO 020053
MTRBLU
METAR KBLU 020052Z AUTO 21006KT 10SM CLR 22/02 A3008 RMK AO2 SLP096
T02170017





000
SAUS46 KSTO 012353
MTRBLU
METAR KBLU 012352Z AUTO 20009KT 160V240 10SM CLR 23/M01 A3008 RMK
AO2 SLP091 T02281006 10239 20200 58007





000
SAUS46 KSTO 012253
MTRBLU
METAR KBLU 012252Z AUTO 20008KT 10SM CLR 23/03 A3008 RMK AO2 SLP091
T02330028





000
SAUS46 KSTO 012154
MTRBLU
METAR KBLU 012152Z AUTO 20007KT 150V260 10SM CLR 23/02 A3009 RMK AO2
SLP095 T02330022





000
SAUS46 KSTO 012154
MTRBLU
METAR KBLU 012152Z AUTO 20007KT 150V260 10SM CLR 23/02 A3009 RMK AO2
SLP095 T02330022





000
SAUS46 KSTO 012053
MTRBLU
METAR KBLU 012052Z AUTO 18008KT 10SM CLR 24/02 A3010 RMK AO2 SLP094
T02390022 58004





000
SAUS46 KSTO 011953
MTRBLU
METAR KBLU 011952Z AUTO 20009G14KT 10SM CLR 22/02 A3010 RMK AO2
SLP101 T02220022





000
SAUS46 KSTO 011953
MTRBLU
METAR KBLU 011952Z AUTO 20009G14KT 10SM CLR 22/02 A3010 RMK AO2
SLP101 T02220022





000
SAUS46 KSTO 011853
MTRBLU
METAR KBLU 011852Z AUTO 21006KT 10SM CLR 22/03 A3011 RMK AO2 SLP105
T02170033





000
SAUS46 KSTO 011753
MTRBLU
METAR KBLU 011752Z AUTO VRB06KT 10SM CLR 20/03 A3011 RMK AO2 SLP113
T02000028 10206 20167 53004





000
SAUS46 KSTO 011653
MTRBLU
METAR KBLU 011652Z AUTO VRB05KT 10SM CLR 19/03 A3011 RMK AO2 SLP111
T01940033





    US Dept of Commerce
    National Oceanic and Atmospheric Administration
    National Weather Service
    1325 East West Highway
    Silver Spring, MD 20910
    Page Author: NWS Internet Services Team
Disclaimer
Information Quality
Credits
Glossary
Privacy Policy
Freedom of Information Act (FOIA)
About Us
Career Opportunities